Time;durP1;ratioP1;P1;durP2;ratioP2;P2;SDS_P1;SDS_P2;PMS_P1;PMS_P2;Temp;Humidity;BMP_temperature;BMP_pressure;BME280_temperature;BME280_humidity;BME280_pressure;Samples;Min_cycle;Max_cycle;Signal;HPM_P1;HPM_P2
2022/07/19 00:01:55;;;;;;;10.18;5.25;;;;;;;22.08;65.57;101647.84;5118859;27;20380;-89
2022/07/19 00:04:21;;;;;;;11.07;4.77;;;;;;;22.06;66.05;101646.47;5101843;27;20121;-88
2022/07/19 00:06:46;;;;;;;10.93;4.87;;;;;;;21.97;65.90;101640.66;5101948;27;20031;-88
2022/07/19 00:09:12;;;;;;;10.43;4.57;;;;;;;21.98;66.42;101635.94;5118869;27;20062;-88
2022/07/19 00:11:43;;;;;;;12.05;4.75;;;;;;;21.90;65.44;101638.13;5118923;27;20118;-88
2022/07/19 00:14:09;;;;;;;11.77;5.28;;;;;;;21.86;66.87;101630.69;5137078;27;20023;-88
2022/07/19 00:16:34;;;;;;;9.47;4.63;;;;;;;21.90;66.42;101629.03;5101607;27;20033;-88
2022/07/19 00:19:00;;;;;;;9.77;4.67;;;;;;;21.88;65.71;101629.31;5118253;27;20027;-88
2022/07/19 00:21:28;;;;;;;8.00;4.83;;;;;;;21.89;64.88;101630.13;5118353;27;20421;-88
2022/07/19 00:23:53;;;;;;;10.32;4.65;;;;;;;21.88;64.25;101629.31;5136600;27;20023;-88
2022/07/19 00:26:19;;;;;;;10.50;5.03;;;;;;;21.87;62.66;101627.63;5101816;27;20041;-88
2022/07/19 00:28:46;;;;;;;9.52;4.30;;;;;;;21.83;62.26;101623.75;5136836;27;20031;-88
2022/07/19 00:31:12;;;;;;;9.10;4.38;;;;;;;21.83;61.93;101623.75;5119414;27;20080;-88
2022/07/19 00:33:37;;;;;;;11.23;4.40;;;;;;;21.80;61.72;101626.25;5118448;27;20386;-88
2022/07/19 00:36:03;;;;;;;7.80;4.43;;;;;;;21.80;62.45;101620.72;5136383;27;20540;-88
2022/07/19 00:38:28;;;;;;;9.10;4.72;;;;;;;21.76;62.67;101627.88;5118309;27;20031;-88
2022/07/19 00:40:54;;;;;;;10.27;4.47;;;;;;;21.75;61.70;101620.69;5118284;27;20526;-88
2022/07/19 00:43:19;;;;;;;8.43;4.70;;;;;;;21.68;63.22;101618.22;5118301;27;20027;-88
2022/07/19 00:45:45;;;;;;;6.77;4.23;;;;;;;21.67;64.24;101613.78;5118157;27;20379;-88
2022/07/19 00:48:10;;;;;;;13.52;4.95;;;;;;;21.66;65.94;101610.19;5117784;27;20500;-89
2022/07/19 00:50:38;;;;;;;10.27;4.47;;;;;;;21.61;65.66;101614.88;5117836;27;20482;-88
2022/07/19 00:53:05;;;;;;;7.35;4.40;;;;;;;21.57;67.20;101609.06;5100251;27;20082;-88
2022/07/19 00:55:38;;;;;;;9.73;4.70;;;;;;;21.52;66.02;101620.91;5136280;27;20027;-88
2022/07/19 00:58:03;;;;;;;9.93;4.60;;;;;;;21.49;65.65;101617.84;5136805;27;20474;-88
2022/07/19 01:00:32;;;;;;;10.35;4.45;;;;;;;21.47;65.58;101615.34;5117761;27;20027;-88
2022/07/19 01:02:59;;;;;;;10.05;4.72;;;;;;;21.47;63.96;101620.88;5117561;27;20024;-88
2022/07/19 01:05:24;;;;;;;8.07;4.67;;;;;;;21.40;63.04;101605.66;5136392;27;20072;-88
2022/07/19 01:07:52;;;;;;;9.00;4.63;;;;;;;21.38;63.63;101615.03;5135737;27;20030;-88
2022/07/19 01:10:18;;;;;;;11.45;4.38;;;;;;;21.35;64.13;101615.56;5135923;27;20049;-89
2022/07/19 01:12:44;;;;;;;11.23;4.97;;;;;;;21.34;62.63;101615.84;5117427;27;20031;-89
2022/07/19 01:15:20;;;;;;;8.77;4.13;;;;;;;21.35;63.34;101617.50;5117615;27;20039;-89
2022/07/19 01:17:47;;;;;;;9.60;4.95;;;;;;;21.33;64.17;101616.94;5117359;27;20035;-88
2022/07/19 01:20:13;;;;;;;9.60;5.00;;;;;;;21.20;64.53;101613.56;5135782;27;20034;-88
2022/07/19 01:22:41;;;;;;;13.07;5.17;;;;;;;21.20;65.19;101613.56;5117023;27;20023;-89
2022/07/19 01:25:10;;;;;;;10.48;4.22;;;;;;;21.20;66.53;101612.75;5117245;27;20031;-88
2022/07/19 01:27:50;;;;;;;11.32;4.75;;;;;;;21.16;64.78;101606.94;5117197;27;20558;-90
2022/07/19 01:30:18;;;;;;;14.20;5.65;;;;;;;21.14;65.09;101616.56;5117835;27;20126;-89
2022/07/19 01:32:45;;;;;;;9.93;5.10;;;;;;;21.11;66.30;101615.19;5117198;27;20058;-89
2022/07/19 01:35:11;;;;;;;6.50;4.40;;;;;;;21.11;66.44;101617.97;5117670;27;20088;-90
2022/07/19 01:37:36;;;;;;;9.65;4.72;;;;;;;21.08;64.93;101617.63;5117192;27;20497;-90
2022/07/19 01:40:07;;;;;;;15.67;4.63;;;;;;;21.02;63.35;101614.03;5100452;27;20031;-89
2022/07/19 01:42:36;;;;;;;7.63;4.95;;;;;;;21.00;63.09;101614.28;5117208;27;20479;-90
2022/07/19 01:45:02;;;;;;;9.27;5.25;;;;;;;21.00;62.74;101611.53;5117136;27;20072;-90
2022/07/19 01:47:28;;;;;;;6.13;4.80;;;;;;;20.98;62.07;101612.91;5135420;27;20054;-90
2022/07/19 01:49:56;;;;;;;8.33;4.50;;;;;;;20.95;61.39;101613.44;5099902;27;20471;-90
2022/07/19 01:52:21;;;;;;;9.73;4.47;;;;;;;20.93;60.99;101610.94;5117185;27;20031;-90
2022/07/19 01:54:50;;;;;;;10.17;4.67;;;;;;;20.91;62.16;101617.84;5117137;27;20368;-90
2022/07/19 01:57:15;;;;;;;8.50;4.68;;;;;;;20.87;62.54;101612.00;5117858;27;20035;-89
2022/07/19 01:59:41;;;;;;;9.25;4.72;;;;;;;20.80;61.73;101608.66;5100018;27;20463;-90
2022/07/19 02:02:07;;;;;;;9.33;4.80;;;;;;;20.77;62.13;101611.94;5099931;28;20035;-90
2022/07/19 02:04:33;;;;;;;6.43;4.53;;;;;;;20.72;63.44;101607.22;5116817;27;20102;-89
2022/07/19 02:06:58;;;;;;;10.45;4.55;;;;;;;20.70;64.54;101606.66;5116492;28;20023;-89
2022/07/19 02:09:24;;;;;;;7.78;4.47;;;;;;;20.67;64.02;101612.72;5115933;27;20486;-90
2022/07/19 02:11:50;;;;;;;7.07;4.40;;;;;;;20.59;63.72;101605.72;5116311;27;20034;-89
2022/07/19 02:14:16;;;;;;;8.45;4.80;;;;;;;20.54;65.09;101604.88;5116636;27;20034;-89
2022/07/19 02:16:42;;;;;;;9.33;5.13;;;;;;;20.50;65.53;101605.38;5116780;28;20526;-90
2022/07/19 02:19:08;;;;;;;7.30;4.80;;;;;;;20.50;65.96;101613.63;5116597;27;20059;-90
2022/07/19 02:21:34;;;;;;;9.73;5.00;;;;;;;20.44;65.79;101609.19;5116383;28;20065;-90
2022/07/19 02:24:03;;;;;;;11.65;4.82;;;;;;;20.38;64.76;101601.97;5116552;27;20026;-89
2022/07/19 02:26:29;;;;;;;10.20;5.03;;;;;;;20.37;66.13;101597.56;5116329;28;20047;-89
2022/07/19 02:28:57;;;;;;;7.10;4.95;;;;;;;20.31;66.71;101595.84;5134967;28;20035;-90
2022/07/19 02:31:23;;;;;;;6.28;4.70;;;;;;;20.29;66.98;101596.13;5116976;28;20348;-90
2022/07/19 02:33:49;;;;;;;12.37;4.93;;;;;;;20.25;66.77;101594.16;5116146;28;20156;-90
2022/07/19 02:36:16;;;;;;;11.70;5.20;;;;;;;20.25;66.57;101591.41;5116634;28;20031;-90
2022/07/19 02:38:43;;;;;;;7.60;4.50;;;;;;;20.20;67.01;101592.19;5134842;28;20023;-89
2022/07/19 02:41:11;;;;;;;8.43;4.97;;;;;;;20.19;67.09;101589.69;5150709;27;20031;-90
2022/07/19 02:43:36;;;;;;;9.55;5.35;;;;;;;20.13;66.68;101584.13;5100053;28;20481;-90
2022/07/19 02:46:02;;;;;;;10.38;5.30;;;;;;;20.07;68.70;101587.94;5150822;27;20114;-90
2022/07/19 02:48:27;;;;;;;10.17;5.10;;;;;;;20.06;68.90;101594.53;5116599;28;20532;-89
2022/07/19 02:50:53;;;;;;;11.47;5.03;;;;;;;20.03;67.16;101586.78;5150709;27;20471;-90
2022/07/19 02:53:19;;;;;;;9.20;5.43;;;;;;;20.00;68.92;101586.50;5113936;28;20093;-89
2022/07/19 02:55:44;;;;;;;10.13;5.07;;;;;;;20.01;69.33;101582.66;5150887;27;20039;-90
2022/07/19 02:58:10;;;;;;;7.10;4.93;;;;;;;20.00;68.21;101583.75;5116098;28;20514;-90
2022/07/19 03:00:35;;;;;;;8.88;5.45;;;;;;;19.96;66.95;101581.50;5117245;28;20042;-89
2022/07/19 03:05:45;;;;;;;8.05;5.70;;;;;;;19.82;66.59;101580.25;5119950;28;20042;-90
2022/07/19 03:08:11;;;;;;;9.57;5.80;;;;;;;19.83;68.24;101578.34;5115883;28;20387;-90
2022/07/19 03:10:36;;;;;;;6.93;5.70;;;;;;;19.83;69.33;101581.09;5100204;28;20329;-90
2022/07/19 03:13:02;;;;;;;11.13;5.97;;;;;;;19.79;68.51;101583.53;5116076;28;20554;-90
2022/07/19 03:15:28;;;;;;;9.53;6.30;;;;;;;19.72;71.19;101580.94;5118570;27;20269;-89
2022/07/19 03:17:56;;;;;;;8.90;5.90;;;;;;;19.66;70.24;101570.16;5119733;27;20034;-90
2022/07/19 03:20:21;;;;;;;12.27;5.78;;;;;;;19.61;69.43;101566.25;5154668;27;20525;-89
2022/07/19 03:22:49;;;;;;;9.97;5.83;;;;;;;19.59;69.41;101565.69;5120492;27;20066;-90
2022/07/19 03:25:15;;;;;;;10.15;5.88;;;;;;;19.60;70.51;101569.25;5119617;27;20035;-90
2022/07/19 03:27:40;;;;;;;9.90;5.70;;;;;;;19.61;70.42;101565.44;5120766;27;20076;-90
2022/07/19 03:30:07;;;;;;;9.65;6.03;;;;;;;19.55;69.91;101564.53;5119923;27;20024;-90
2022/07/19 03:32:32;;;;;;;9.43;5.93;;;;;;;19.53;69.62;101558.47;5120037;27;20110;-90
2022/07/19 03:34:58;;;;;;;11.80;6.30;;;;;;;19.51;70.44;101563.38;5137759;27;20398;-90
2022/07/19 03:37:23;;;;;;;8.57;5.80;;;;;;;19.49;71.65;101560.06;5102796;27;20448;-89
2022/07/19 03:39:49;;;;;;;13.83;6.40;;;;;;;19.50;69.73;101558.16;5119366;27;20046;-90
2022/07/19 03:42:14;;;;;;;12.00;6.13;;;;;;;19.52;70.60;101567.00;5119498;27;20034;-90
2022/07/19 03:44:40;;;;;;;10.07;6.10;;;;;;;19.48;71.22;101563.91;5119423;27;20063;-90
2022/07/19 03:47:05;;;;;;;7.87;6.00;;;;;;;19.49;69.51;101567.47;5102670;27;20035;-90
2022/07/19 03:49:34;;;;;;;8.68;6.28;;;;;;;19.47;70.59;101556.72;5119727;27;20351;-89
2022/07/19 03:52:01;;;;;;;12.75;6.35;;;;;;;19.50;71.64;101560.91;5154871;27;20035;-90
2022/07/19 03:54:27;;;;;;;11.97;6.40;;;;;;;19.47;71.52;101567.75;5137237;27;20550;-90
2022/07/19 03:56:55;;;;;;;15.35;6.60;;;;;;;19.50;70.74;101569.16;5119885;27;20031;-90
2022/07/19 03:59:22;;;;;;;11.07;6.60;;;;;;;19.49;69.56;101564.72;5154103;27;20041;-90
2022/07/19 04:01:48;;;;;;;13.65;7.00;;;;;;;19.50;68.88;101574.66;5119293;27;20023;-90
2022/07/19 04:04:14;;;;;;;14.30;7.00;;;;;;;19.50;69.25;101569.16;5119538;27;20122;-90
2022/07/19 04:06:39;;;;;;;11.50;7.47;;;;;;;19.49;68.41;101570.22;5119302;27;20169;-90
2022/07/19 04:09:05;;;;;;;14.20;7.78;;;;;;;19.46;69.06;101560.59;5102340;27;20040;-90
2022/07/19 04:11:30;;;;;;;13.87;8.00;;;;;;;19.51;68.66;101571.66;5101943;27;20065;-90
2022/07/19 04:13:56;;;;;;;10.60;7.60;;;;;;;19.55;68.13;101564.53;5102171;27;20035;-89
2022/07/19 04:16:21;;;;;;;13.83;8.37;;;;;;;19.53;68.06;101563.97;5119098;27;20436;-90
2022/07/19 04:18:46;;;;;;;13.30;7.88;;;;;;;19.56;67.16;101565.34;5118647;27;20113;-90
2022/07/19 04:21:12;;;;;;;12.47;8.40;;;;;;;19.53;68.83;101560.38;5137161;27;20042;-90
2022/07/19 04:23:37;;;;;;;10.47;7.87;;;;;;;19.54;70.89;101568.38;5135734;27;20031;-90
2022/07/19 04:26:03;;;;;;;13.87;8.30;;;;;;;19.61;69.93;101568.19;5100947;27;20379;-90
2022/07/19 04:28:28;;;;;;;11.02;8.27;;;;;;;19.66;68.22;101565.47;5118544;27;20039;-89
2022/07/19 04:30:56;;;;;;;12.30;7.90;;;;;;;19.67;67.43;101566.31;5101482;27;20038;-90
2022/07/19 04:33:22;;;;;;;13.68;8.98;;;;;;;19.69;67.39;101570.47;5118576;27;20042;-89
2022/07/19 04:35:47;;;;;;;16.47;8.13;;;;;;;19.74;67.51;101564.19;5135661;27;20459;-89
2022/07/19 04:38:13;;;;;;;16.63;8.37;;;;;;;19.80;69.16;101569.50;5101379;27;20410;-89
2022/07/19 04:40:38;;;;;;;10.07;7.90;;;;;;;19.85;67.52;101568.72;5101540;27;20289;-90
2022/07/19 04:43:08;;;;;;;14.27;8.37;;;;;;;19.89;68.05;101569.88;5117964;27;20045;-89
2022/07/19 04:45:34;;;;;;;17.90;8.70;;;;;;;19.95;66.50;101571.56;5118227;27;20459;-90
2022/07/19 04:47:59;;;;;;;17.60;9.07;;;;;;;19.97;65.16;101571.31;5101154;27;20031;-89
2022/07/19 04:50:28;;;;;;;13.40;8.47;;;;;;;20.03;66.36;101569.44;5118565;27;20030;-90
2022/07/19 04:52:53;;;;;;;13.65;8.98;;;;;;;20.08;66.24;101567.56;5100864;27;20027;-90
2022/07/19 04:55:19;;;;;;;13.20;8.50;;;;;;;20.11;66.48;101572.56;5118456;27;20031;-90
2022/07/19 04:57:44;;;;;;;13.27;8.97;;;;;;;20.20;65.61;101574.84;5117661;27;20023;-90
2022/07/19 05:00:10;;;;;;;18.77;9.77;;;;;;;20.23;64.60;101569.63;5118147;27;20027;-90
2022/07/19 05:02:36;;;;;;;12.63;8.87;;;;;;;20.28;64.67;101568.84;5118436;27;20075;-91
2022/07/19 05:05:03;;;;;;;15.15;9.40;;;;;;;20.34;66.22;101567.78;5117716;27;20087;-90
2022/07/19 05:07:29;;;;;;;14.45;9.25;;;;;;;20.41;66.96;101564.81;5118080;27;20038;-90
2022/07/19 05:09:54;;;;;;;17.70;10.07;;;;;;;20.47;65.96;101566.50;5100878;27;20379;-90
2022/07/19 05:12:20;;;;;;;17.33;9.20;;;;;;;20.50;65.64;101566.78;5117557;27;20492;-90
2022/07/19 05:14:45;;;;;;;55.57;11.40;;;;;;;20.59;64.39;101558.03;5117864;27;20394;-88
2022/07/19 05:17:11;;;;;;;18.40;9.67;;;;;;;20.64;64.34;101553.38;5117404;27;20027;-91
2022/07/19 05:19:36;;;;;;;21.53;10.20;;;;;;;20.69;65.92;101558.13;5152578;27;20062;-90
2022/07/19 05:22:02;;;;;;;14.07;9.63;;;;;;;20.74;63.43;101557.31;5117842;27;20118;-91
2022/07/19 05:24:27;;;;;;;16.83;9.90;;;;;;;20.81;64.28;101560.69;5117292;27;20588;-91
2022/07/19 05:26:53;;;;;;;21.27;9.83;;;;;;;20.85;64.27;101562.63;5118359;27;20027;-93
2022/07/19 05:29:18;;;;;;;17.52;10.02;;;;;;;20.92;63.47;101562.41;5118324;27;20076;-91
2022/07/19 05:31:44;;;;;;;21.10;10.13;;;;;;;20.98;62.40;101558.56;5117617;27;20031;-88
2022/07/19 05:34:10;;;;;;;24.90;10.52;;;;;;;21.05;64.45;101569.34;5101774;27;20374;-89
2022/07/19 05:36:35;;;;;;;22.87;11.27;;;;;;;21.10;64.19;101569.38;5117556;27;20100;-91
2022/07/19 05:39:01;;;;;;;21.03;11.33;;;;;;;21.17;63.39;101577.41;5135235;27;20047;-93
2022/07/19 05:41:26;;;;;;;21.93;11.17;;;;;;;21.24;62.31;101591.78;5118093;27;20066;-89
2022/07/19 05:43:55;;;;;;;15.33;10.60;;;;;;;21.30;62.39;101587.94;5117465;27;20288;-88
2022/07/19 05:46:21;;;;;;;22.15;11.75;;;;;;;21.34;61.37;101591.00;5101205;27;20122;-91
2022/07/19 05:48:47;;;;;;;23.73;11.47;;;;;;;21.45;60.97;101589.09;5118691;27;20057;-90
2022/07/19 05:51:12;;;;;;;18.17;11.77;;;;;;;21.50;59.29;101580.84;5118245;27;20030;-91
2022/07/19 05:53:38;;;;;;;14.47;11.47;;;;;;;21.57;58.34;101586.97;5118214;27;20126;-91
2022/07/19 05:56:05;;;;;;;16.77;11.07;;;;;;;21.62;58.12;101580.63;5084449;27;20067;-90
2022/07/19 05:58:32;;;;;;;20.33;11.80;;;;;;;21.70;57.84;101580.09;5117318;27;20080;-88
2022/07/19 06:01:22;;;;;;;16.48;10.85;;;;;;;21.77;57.48;101574.31;5117911;27;20356;-91
2022/07/19 06:03:51;;;;;;;18.65;12.13;;;;;;;21.85;56.38;101579.28;5102712;27;20172;-91
2022/07/19 06:06:17;;;;;;;21.27;11.23;;;;;;;21.93;56.59;101570.47;5117286;27;20042;-92
2022/07/19 06:08:43;;;;;;;25.15;10.80;;;;;;;22.02;55.84;101576.28;5121362;27;20137;-92
2022/07/19 06:11:08;;;;;;;23.93;10.93;;;;;;;22.11;55.34;101571.84;5119279;27;20070;-92
2022/07/19 06:13:38;;;;;;;20.90;10.95;;;;;;;22.18;55.11;101579.88;5102928;27;20392;-92
2022/07/19 06:16:04;;;;;;;16.55;9.68;;;;;;;22.27;54.24;101581.00;5117246;27;20079;-92
2022/07/19 06:18:34;;;;;;;13.80;8.87;;;;;;;22.35;53.83;101583.25;5118574;28;20027;-92
2022/07/19 06:21:19;;;;;;;23.35;8.90;;;;;;;22.43;53.29;101576.31;5117653;27;20031;-92
2022/07/19 06:23:54;;;;;;;21.95;8.10;;;;;;;22.52;52.87;101584.88;5136254;27;20034;-92
2022/07/19 06:26:20;;;;;;;19.10;7.93;;;;;;;22.58;52.75;101579.03;5135700;27;20099;-92
2022/07/19 06:28:48;;;;;;;23.47;7.93;;;;;;;22.65;52.74;101578.78;5100998;28;20070;-92
2022/07/19 06:31:17;;;;;;;19.83;7.65;;;;;;;22.74;52.04;101582.63;5134668;27;20498;-93
2022/07/19 06:33:44;;;;;;;18.48;7.60;;;;;;;22.82;52.53;101574.88;5135346;27;20027;-93
2022/07/19 06:36:11;;;;;;;15.67;7.30;;;;;;;22.88;52.26;101585.66;5116674;28;20035;-92
2022/07/19 06:38:37;;;;;;;21.95;6.97;;;;;;;22.94;51.37;101575.38;5135193;28;20030;-92
2022/07/19 06:41:03;;;;;;;18.02;6.90;;;;;;;23.02;51.06;101579.53;5116851;28;20031;-92
2022/07/19 06:43:29;;;;;;;15.77;6.95;;;;;;;23.11;50.87;101572.31;5117132;28;20489;-93
2022/07/19 06:46:00;;;;;;;17.23;7.10;;;;;;;23.17;50.78;101576.72;5117410;28;20023;-92
2022/07/19 06:48:26;;;;;;;17.58;7.30;;;;;;;23.26;50.13;101576.97;5135566;28;20027;-90
2022/07/19 06:50:54;;;;;;;13.07;6.03;;;;;;;23.35;50.32;101571.66;5102458;27;20033;-89
2022/07/19 06:53:21;;;;;;;13.50;6.50;;;;;;;23.41;50.03;101568.56;5102983;27;20108;-89
2022/07/19 06:55:46;;;;;;;16.80;6.50;;;;;;;23.51;49.86;101576.00;5120997;27;20429;-89
2022/07/19 06:58:12;;;;;;;13.03;6.37;;;;;;;23.58;49.52;101567.38;5104047;27;20039;-89
2022/07/19 07:00:38;;;;;;;17.50;6.05;;;;;;;23.64;49.49;101569.00;5120311;27;20488;-89
2022/07/19 07:03:04;;;;;;;20.05;6.45;;;;;;;23.75;49.42;101569.75;5119947;27;20502;-89
2022/07/19 07:05:32;;;;;;;17.93;5.80;;;;;;;23.83;49.28;101578.28;5138428;27;20067;-89
2022/07/19 07:07:57;;;;;;;13.82;5.20;;;;;;;23.90;48.88;101578.00;5119972;27;20035;-89
2022/07/19 07:10:23;;;;;;;17.10;6.03;;;;;;;23.99;48.77;101575.44;5120072;27;20034;-89
2022/07/19 07:12:49;;;;;;;13.10;5.45;;;;;;;24.11;48.30;101575.91;5137980;27;20143;-89
2022/07/19 07:15:15;;;;;;;16.77;5.70;;;;;;;24.21;48.45;101574.16;5138192;27;20023;-89
2022/07/19 07:17:41;;;;;;;18.03;5.30;;;;;;;24.30;48.12;101570.47;5120154;27;20038;-88
2022/07/19 07:20:08;;;;;;;11.55;5.43;;;;;;;24.43;47.43;101568.13;5119448;27;20035;-89
2022/07/19 07:22:34;;;;;;;18.02;5.60;;;;;;;24.54;47.11;101572.47;5139059;27;20030;-89
2022/07/19 07:25:00;;;;;;;17.23;5.60;;;;;;;24.68;47.49;101562.38;5119768;27;20064;-89
2022/07/19 07:27:26;;;;;;;15.37;5.70;;;;;;;24.75;47.17;101562.03;5119987;27;20077;-89
2022/07/19 07:29:51;;;;;;;11.13;5.10;;;;;;;24.89;45.62;101566.84;5102685;27;20031;-90
2022/07/19 07:32:17;;;;;;;19.27;5.30;;;;;;;25.02;45.45;101572.56;5119423;27;20035;-89
2022/07/19 07:34:45;;;;;;;15.05;5.35;;;;;;;25.20;45.29;101568.16;5119455;27;20027;-89
2022/07/19 07:37:10;;;;;;;13.27;4.80;;;;;;;25.38;44.19;101569.34;5119308;27;20102;-88
2022/07/19 07:39:36;;;;;;;7.72;4.00;;;;;;;25.52;42.22;101561.06;5102112;27;20130;-89
2022/07/19 07:42:03;;;;;;;15.27;4.10;;;;;;;25.62;42.56;101560.13;5119521;27;20027;-89
2022/07/19 07:44:29;;;;;;;11.25;4.22;;;;;;;25.75;42.11;101561.31;5119467;27;20034;-89
2022/07/19 07:46:54;;;;;;;19.30;4.75;;;;;;;25.84;42.24;101558.69;5119319;27;20031;-89
2022/07/19 07:49:20;;;;;;;9.70;4.40;;;;;;;25.91;41.98;101559.13;5119631;27;20061;-89
2022/07/19 07:51:46;;;;;;;9.43;4.38;;;;;;;25.99;42.33;101558.47;5102021;27;20067;-89
2022/07/19 07:54:12;;;;;;;8.90;4.60;;;;;;;26.11;41.94;101549.63;5118819;27;20612;-89
2022/07/19 07:56:37;;;;;;;17.33;4.40;;;;;;;26.22;41.55;101541.94;5118853;27;20420;-89
2022/07/19 07:59:03;;;;;;;10.80;4.30;;;;;;;26.27;42.71;101539.91;5101797;27;20048;-89
2022/07/19 08:01:29;;;;;;;8.50;4.77;;;;;;;26.37;41.83;101543.66;5101251;27;20076;-89
2022/07/19 08:03:55;;;;;;;12.20;4.10;;;;;;;26.45;41.24;101534.59;5102545;27;20023;-89
2022/07/19 08:06:20;;;;;;;12.13;4.40;;;;;;;26.52;41.81;101539.75;5137084;27;20123;-89
2022/07/19 08:08:46;;;;;;;16.25;4.55;;;;;;;26.58;41.87;101536.56;5137086;27;20035;-89
2022/07/19 08:11:14;;;;;;;10.77;4.20;;;;;;;26.66;41.76;101535.00;5101958;27;20030;-90
2022/07/19 08:13:39;;;;;;;10.05;4.00;;;;;;;26.81;41.09;101539.50;5085306;27;20047;-89
2022/07/19 08:16:06;;;;;;;11.73;3.80;;;;;;;26.96;40.15;101541.16;5137350;27;20027;-89
2022/07/19 08:18:32;;;;;;;10.20;4.22;;;;;;;27.05;40.50;101533.69;5136375;27;20037;-88
2022/07/19 08:21:01;;;;;;;6.90;3.92;;;;;;;27.12;40.72;101527.69;5136664;27;20030;-88
2022/07/19 08:23:26;;;;;;;9.93;4.10;;;;;;;27.18;40.67;101529.25;5085187;27;20039;-88
2022/07/19 08:25:52;;;;;;;8.77;3.95;;;;;;;27.27;40.59;101532.13;5119216;27;20023;-89
2022/07/19 08:28:17;;;;;;;12.63;4.37;;;;;;;27.39;38.82;101532.44;5119087;27;20027;-89
2022/07/19 08:30:43;;;;;;;8.60;4.00;;;;;;;27.46;39.71;101534.78;5102437;27;20031;-89
2022/07/19 08:33:09;;;;;;;10.90;4.30;;;;;;;27.60;38.88;101529.19;5119082;27;20382;-88
2022/07/19 08:35:36;;;;;;;9.77;3.70;;;;;;;27.79;37.50;101524.25;5102325;27;20387;-89
2022/07/19 08:38:01;;;;;;;17.08;4.57;;;;;;;27.98;37.03;101526.88;5137109;27;20538;-88
2022/07/19 08:40:32;;;;;;;13.87;4.20;;;;;;;28.09;37.40;101530.22;5084947;27;20100;-89
2022/07/19 08:42:58;;;;;;;9.93;3.92;;;;;;;28.24;37.63;101526.19;5137298;27;20031;-88
2022/07/19 08:45:25;;;;;;;9.82;3.90;;;;;;;28.38;36.94;101523.34;5118866;27;20474;-88
2022/07/19 08:47:51;;;;;;;12.30;3.87;;;;;;;28.50;37.61;101525.53;5118971;27;20482;-89
2022/07/19 08:50:17;;;;;;;13.18;4.18;;;;;;;28.55;37.96;101518.97;5102888;27;20039;-88
2022/07/19 08:52:42;;;;;;;8.17;4.00;;;;;;;28.68;37.26;101518.06;5102087;27;20088;-89
2022/07/19 08:55:09;;;;;;;10.18;4.72;;;;;;;28.78;36.92;101523.38;5154387;27;20104;-89
2022/07/19 09:00:19;;;;;;;16.30;4.60;;;;;;;29.08;36.16;101514.41;5122163;27;20038;-89
2022/07/19 09:02:56;;;;;;;16.75;4.13;;;;;;;29.20;36.15;101509.84;5138338;27;20024;-88
2022/07/19 09:05:22;;;;;;;8.98;4.43;;;;;;;29.32;35.94;101511.19;5120531;27;20106;-89
2022/07/19 09:08:09;;;;;;;13.47;4.43;;;;;;;29.44;35.78;101522.56;5119481;27;20502;-88
2022/07/19 09:10:42;;;;;;;7.32;4.65;;;;;;;29.56;34.72;101513.50;5119665;27;20042;-89
2022/07/19 09:13:11;;;;;;;9.75;4.47;;;;;;;29.73;34.55;101512.66;5118939;27;20030;-89
2022/07/19 09:15:54;;;;;;;11.85;3.92;;;;;;;29.91;34.16;101505.09;5121143;27;20507;-88
2022/07/19 09:18:28;;;;;;;18.00;4.80;;;;;;;30.06;34.49;101506.56;5103429;27;20382;-89
2022/07/19 09:20:56;;;;;;;11.27;4.40;;;;;;;30.18;34.29;101503.91;5118354;27;20023;-89
2022/07/19 09:23:22;;;;;;;13.32;4.35;;;;;;;30.33;33.42;101502.53;5118302;27;20498;-88
2022/07/19 09:25:56;;;;;;;10.77;5.28;;;;;;;30.47;32.63;101501.53;5136506;27;20039;-89
2022/07/19 09:28:24;;;;;;;10.70;4.27;;;;;;;30.60;33.12;101497.66;5117630;27;20023;-89
2022/07/19 09:30:52;;;;;;;11.70;3.97;;;;;;;30.76;32.74;101501.53;5118000;27;20031;-85
2022/07/19 09:33:24;;;;;;;12.18;4.28;;;;;;;30.91;32.46;101502.13;5117281;27;20114;-89
2022/07/19 09:35:52;;;;;;;15.93;4.30;;;;;;;31.00;32.23;101497.31;5118535;27;20030;-88
2022/07/19 09:38:20;;;;;;;14.10;4.57;;;;;;;31.16;32.69;101503.13;5117972;27;20096;-89
2022/07/19 09:40:50;;;;;;;6.13;3.80;;;;;;;31.27;32.08;101495.97;5117051;27;20039;-88
2022/07/19 09:43:17;;;;;;;6.57;4.32;;;;;;;31.39;30.81;101494.38;5134591;27;20060;-89
2022/07/19 09:45:42;;;;;;;6.97;4.57;;;;;;;31.47;31.01;101494.31;5136018;27;20173;-89
2022/07/19 09:48:08;;;;;;;9.97;4.50;;;;;;;31.61;31.56;101501.66;5117562;27;20110;-90
2022/07/19 09:50:34;;;;;;;10.15;4.47;;;;;;;31.69;30.32;101485.91;5135356;27;20027;-89
2022/07/19 09:53:05;;;;;;;12.77;4.80;;;;;;;31.73;29.49;101490.50;5116891;27;20031;-88
2022/07/19 09:55:31;;;;;;;7.15;4.50;;;;;;;31.80;29.72;101489.91;5118300;27;20422;-89
2022/07/19 09:58:07;;;;;;;9.63;4.68;;;;;;;31.85;28.63;101492.53;5118090;27;20126;-90
2022/07/19 10:00:36;;;;;;;11.65;4.70;;;;;;;31.92;29.05;101480.72;5116708;27;20458;-89
2022/07/19 10:03:05;;;;;;;8.75;4.88;;;;;;;31.99;29.31;101480.97;5116416;27;20031;-90
2022/07/19 10:05:33;;;;;;;9.60;4.00;;;;;;;32.09;28.18;101476.91;5116844;27;20110;-89
2022/07/19 10:07:59;;;;;;;8.95;4.38;;;;;;;32.17;28.17;101481.63;5116325;27;20054;-89
2022/07/19 10:10:29;;;;;;;8.00;4.53;;;;;;;32.39;29.07;101476.75;5135321;27;20066;-89
2022/07/19 10:12:56;;;;;;;5.43;4.30;;;;;;;32.59;29.68;101477.81;5116668;27;20031;-90
2022/07/19 10:15:22;;;;;;;7.33;4.17;;;;;;;32.83;29.29;101477.00;5116368;27;20033;-89
2022/07/19 10:17:58;;;;;;;7.38;4.18;;;;;;;33.04;28.44;101474.03;5115820;27;20049;-90
2022/07/19 10:20:26;;;;;;;11.57;4.13;;;;;;;33.14;28.03;101472.72;5116789;27;20058;-90
2022/07/19 10:22:55;;;;;;;7.32;4.15;;;;;;;33.21;27.25;101462.53;5116692;28;20081;-89
2022/07/19 10:25:21;;;;;;;8.25;3.90;;;;;;;33.36;28.25;101465.78;5115686;28;20387;-90
2022/07/19 10:27:57;;;;;;;8.60;4.30;;;;;;;33.56;27.29;101469.56;5116403;27;20027;-90
2022/07/19 10:30:25;;;;;;;8.32;4.13;;;;;;;33.70;26.60;101455.88;5117775;28;20034;-89
2022/07/19 10:32:53;;;;;;;6.30;4.25;;;;;;;33.89;26.68;101457.22;5116257;28;20019;-90
2022/07/19 10:35:25;;;;;;;11.67;4.20;;;;;;;34.08;26.79;101457.34;5116088;28;20033;-90
2022/07/19 10:38:05;;;;;;;9.90;4.30;;;;;;;34.35;26.49;101457.63;5116424;28;20031;-91
2022/07/19 10:40:41;;;;;;;11.13;4.40;;;;;;;34.54;25.29;101454.06;5116804;28;20106;-90
2022/07/19 10:43:12;;;;;;;9.10;4.40;;;;;;;34.58;26.16;101451.34;5116488;28;20027;-91
2022/07/19 10:45:40;;;;;;;7.10;4.32;;;;;;;34.86;24.68;101448.41;5134814;28;20028;-90
2022/07/19 10:48:14;;;;;;;8.43;3.83;;;;;;;34.86;24.13;101441.94;5116259;28;20072;-91
2022/07/19 10:50:52;;;;;;;11.60;4.35;;;;;;;34.70;24.23;101442.78;5116501;28;20084;-90
2022/07/19 10:53:42;;;;;;;7.28;4.38;;;;;;;34.74;25.12;101438.03;5134633;28;20035;-90
2022/07/19 10:56:20;;;;;;;6.97;4.25;;;;;;;34.77;24.52;101436.50;5134490;28;20391;-90
2022/07/19 10:58:54;;;;;;;5.22;3.75;;;;;;;34.97;23.64;101429.72;5117566;28;20374;-91
2022/07/19 11:01:21;;;;;;;6.50;3.53;;;;;;;35.39;22.82;101441.47;5116306;28;20023;-91
2022/07/19 11:03:49;;;;;;;6.25;3.85;;;;;;;35.72;22.98;101431.66;5116610;28;20033;-91
2022/07/19 11:06:24;;;;;;;6.55;3.95;;;;;;;36.02;22.54;101431.78;5099370;28;20023;-91
2022/07/19 11:08:54;;;;;;;6.45;3.95;;;;;;;36.35;22.05;101421.91;5135062;28;20167;-92
2022/07/19 11:11:19;;;;;;;6.90;4.10;;;;;;;36.64;21.48;101411.00;5117500;28;20478;-93
2022/07/19 11:13:48;;;;;;;4.80;4.30;;;;;;;37.07;21.53;101416.47;5118393;28;20081;-93
2022/07/19 11:16:14;;;;;;;7.80;4.10;;;;;;;37.47;20.54;101406.44;5119312;28;20102;-92
2022/07/19 11:18:40;;;;;;;6.93;4.22;;;;;;;37.58;19.88;101406.56;5136167;28;20035;-92
2022/07/19 11:21:06;;;;;;;6.77;4.83;;;;;;;37.77;20.26;101406.38;5117185;28;20034;-92
2022/07/19 11:23:35;;;;;;;6.60;4.38;;;;;;;38.48;20.66;101405.34;5117672;28;20393;-92
2022/07/19 11:26:17;;;;;;;7.28;4.90;;;;;;;39.79;19.76;101396.13;5117412;28;20073;-93